Time;durP1;ratioP1;P1;durP2;ratioP2;P2;SDS_P1;SDS_P2;PMS_P1;PMS_P2;Temp;Humidity;BMP_temperature;BMP_pressure;BME280_temperature;BME280_humidity;BME280_pressure;Samples;Min_cycle;Max_cycle;Signal;HPM_P1;HPM_P2
2021/12/17 00:00:57;;;;;;;11.60;7.10;;;;;;;5.85;73.28;100551.89;1748274;80;21591;-59
2021/12/17 00:03:21;;;;;;;9.53;6.35;;;;;;;5.94;73.26;100553.98;1745857;80;21061;-59
2021/12/17 00:08:15;;;;;;;10.75;7.22;;;;;;;6.00;72.99;100553.67;1736646;81;21108;-59
2021/12/17 00:10:45;;;;;;;15.32;6.90;;;;;;;6.00;72.93;100560.20;1732229;81;21490;-59
2021/12/17 00:13:11;;;;;;;10.32;6.15;;;;;;;6.00;72.79;100570.65;1742011;80;21939;-58
2021/12/17 00:15:39;;;;;;;9.45;5.28;;;;;;;5.90;72.52;100566.38;1746230;80;21007;-58
2021/12/17 00:18:16;;;;;;;10.90;5.67;;;;;;;5.89;72.64;100562.55;1759379;79;21108;-58
2021/12/17 00:20:56;;;;;;;9.50;5.42;;;;;;;5.97;72.52;100561.68;1732934;81;21125;-59
2021/12/17 00:51:10;;;;;;;8.48;5.22;;;;;;;5.79;72.35;100562.70;1743869;80;21055;-59
2021/12/17 00:53:09;;;;;;;9.00;5.10;;;;;;;5.74;72.33;100557.73;1750490;80;21120;-59
2021/12/17 00:55:36;;;;;;;12.23;5.55;;;;;;;5.68;72.32;100553.72;1762299;79;21137;-59
2021/12/17 00:58:03;;;;;;;9.95;5.42;;;;;;;5.73;72.33;100550.38;1762940;79;21500;-59
2021/12/17 01:00:30;;;;;;;9.78;5.40;;;;;;;5.85;72.00;100547.53;1758772;79;21218;-59
2021/12/17 01:02:57;;;;;;;8.85;4.72;;;;;;;5.94;71.85;100551.38;1762852;79;21530;-59
2021/12/17 01:05:27;;;;;;;12.55;5.55;;;;;;;6.00;71.60;100541.91;1755742;81;21108;-59
2021/12/17 01:07:55;;;;;;;10.60;5.30;;;;;;;5.99;71.42;100542.00;1764302;79;22273;-59
2021/12/17 01:10:29;;;;;;;7.97;4.28;;;;;;;5.95;71.40;100540.84;1795255;79;21042;-59
2021/12/17 01:12:59;;;;;;;10.20;5.15;;;;;;;5.90;71.27;100537.66;1763687;79;21182;-59
2021/12/17 01:15:38;;;;;;;7.92;4.40;;;;;;;5.82;71.29;100539.86;1734127;79;21119;-58
2021/12/17 01:18:24;;;;;;;11.05;5.00;;;;;;;5.71;71.44;100533.94;1709441;81;21596;-58
2021/12/17 01:43:04;;;;;;;8.60;3.20;;;;;;;5.48;72.10;100512.22;1738313;81;21045;-60
2021/12/17 01:45:36;;;;;;;9.95;3.87;;;;;;;5.61;72.13;100514.51;1735892;81;21061;-59
2021/12/17 01:48:03;;;;;;;8.85;4.37;;;;;;;5.70;72.06;100505.30;1737304;81;21066;-59
2021/12/17 02:01:15;;;;;;;7.70;3.58;;;;;;;5.80;71.42;100504.31;1769264;78;21065;-59
2021/12/17 02:03:43;;;;;;;6.85;2.98;;;;;;;5.95;71.12;100500.80;1790194;78;21653;-59
2021/12/17 02:06:10;;;;;;;7.33;3.40;;;;;;;6.00;70.70;100497.51;1795654;78;21153;-59
2021/12/17 02:08:38;;;;;;;6.67;2.98;;;;;;;5.98;70.67;100502.44;1798647;78;21061;-59
2021/12/17 02:22:34;;;;;;;5.42;2.37;;;;;;;5.86;70.55;100497.43;1754512;78;21083;-59
2021/12/17 02:30:13;;;;;;;5.53;2.47;;;;;;;5.88;70.44;100493.78;1761922;79;21088;-58
2021/12/17 02:32:32;;;;;;;5.08;2.15;;;;;;;5.82;70.50;100485.50;1762573;79;21149;-59
2021/12/17 02:35:23;;;;;;;5.45;2.12;;;;;;;5.75;70.40;100483.23;1771740;78;21078;-57
2021/12/17 02:37:29;;;;;;;6.67;1.95;;;;;;;5.72;70.52;100484.72;1758165;79;20998;-58
2021/12/17 02:45:32;;;;;;;4.55;1.87;;;;;;;5.91;70.23;100489.69;1765212;79;21140;-59
2021/12/17 02:48:06;;;;;;;4.97;1.67;;;;;;;5.98;69.91;100488.06;1790789;78;21054;-59
2021/12/17 02:50:46;;;;;;;5.25;1.77;;;;;;;5.95;69.80;100484.68;1793128;78;21076;-59
2021/12/17 02:53:12;;;;;;;4.60;1.50;;;;;;;5.90;69.64;100483.25;1787684;78;21782;-58
2021/12/17 02:55:44;;;;;;;4.80;1.90;;;;;;;5.80;69.73;100478.20;1792779;78;21069;-58
2021/12/17 02:58:11;;;;;;;5.35;2.02;;;;;;;5.72;69.76;100478.19;1769700;80;21175;-59
2021/12/17 03:00:40;;;;;;;4.70;1.72;;;;;;;5.61;69.93;100470.13;1766524;79;22207;-59
2021/12/17 03:03:07;;;;;;;3.52;1.00;;;;;;;5.56;70.06;100468.25;1788461;78;21095;-60
2021/12/17 03:05:35;;;;;;;3.92;1.52;;;;;;;5.64;70.15;100470.44;1780950;79;21503;-59
2021/12/17 03:08:06;;;;;;;4.67;1.65;;;;;;;5.68;70.13;100475.39;1757008;80;21038;-59
2021/12/17 03:10:32;;;;;;;4.58;1.57;;;;;;;5.71;70.13;100466.05;1786223;78;21029;-59
2021/12/17 03:13:03;;;;;;;5.25;1.62;;;;;;;5.69;70.07;100464.48;1793471;78;21574;-59
2021/12/17 03:23:39;;;;;;;3.15;1.27;;;;;;;5.52;70.47;100462.38;1763399;80;21528;-59
2021/12/17 03:26:04;;;;;;;5.15;1.57;;;;;;;5.57;70.22;100463.42;1783130;78;26778;-58
2021/12/17 03:28:31;;;;;;;5.00;1.22;;;;;;;5.59;70.24;100463.69;1739994;79;21557;-58
2021/12/17 03:30:58;;;;;;;3.95;1.55;;;;;;;5.59;70.19;100471.52;1778503;79;21062;-58
2021/12/17 03:33:24;;;;;;;3.08;1.12;;;;;;;5.57;70.02;100464.25;1783484;79;20992;-58
2021/12/17 03:35:52;;;;;;;5.10;1.62;;;;;;;5.57;70.07;100466.03;1755735;80;21243;-59
2021/12/17 03:38:19;;;;;;;3.60;1.35;;;;;;;5.56;69.89;100455.20;1783464;79;21078;-58
2021/12/17 03:40:46;;;;;;;4.10;1.10;;;;;;;5.61;69.68;100464.08;1789153;78;21316;-59
2021/12/17 03:43:23;;;;;;;4.00;1.25;;;;;;;5.66;69.69;100462.04;1763250;80;21061;-58
2021/12/17 03:45:45;;;;;;;5.90;1.27;;;;;;;5.70;69.70;100463.53;1762226;79;21168;-59
2021/12/17 03:48:13;;;;;;;5.00;1.30;;;;;;;5.68;69.76;100461.03;1755578;78;21204;-58
2021/12/17 03:50:40;;;;;;;4.10;1.10;;;;;;;5.67;69.72;100460.65;1808336;77;21526;-58
2021/12/17 03:53:07;;;;;;;3.98;1.40;;;;;;;5.66;69.77;100457.65;1794400;78;21112;-58
2021/12/17 03:55:34;;;;;;;4.00;1.62;;;;;;;5.64;69.67;100452.16;1796838;78;21068;-58
2021/12/17 03:58:02;;;;;;;3.30;1.10;;;;;;;5.64;69.66;100452.16;1771476;78;21035;-58
2021/12/17 04:00:30;;;;;;;3.27;1.20;;;;;;;5.73;69.37;100447.69;1733890;81;22215;-59
2021/12/17 04:02:57;;;;;;;5.58;1.72;;;;;;;5.75;69.26;100447.16;1764343;79;21054;-59
2021/12/17 04:05:29;;;;;;;5.30;1.45;;;;;;;5.70;69.12;100441.34;1728617;81;21534;-59
2021/12/17 04:08:14;;;;;;;3.40;1.35;;;;;;;5.64;69.28;100442.55;1737842;80;21055;-59
2021/12/17 04:10:49;;;;;;;4.85;1.55;;;;;;;5.58;69.60;100445.50;1738440;80;21082;-59
2021/12/17 04:13:27;;;;;;;5.53;1.35;;;;;;;5.55;69.58;100446.54;1734472;79;21286;-59
2021/12/17 04:15:53;;;;;;;3.72;1.20;;;;;;;5.60;69.50;100444.97;1764214;79;20964;-58
2021/12/17 04:18:12;;;;;;;7.30;1.70;;;;;;;5.68;69.21;100447.98;1737609;80;21066;-59
2021/12/17 04:20:38;;;;;;;3.27;1.17;;;;;;;5.69;69.35;100452.73;1753702;79;21103;-59
2021/12/17 04:23:05;;;;;;;4.75;1.40;;;;;;;5.70;69.44;100442.64;1763156;79;21050;-60
2021/12/17 04:25:31;;;;;;;6.22;1.50;;;;;;;5.70;69.40;100446.56;1775731;79;21889;-60
2021/12/17 04:27:59;;;;;;;5.08;1.42;;;;;;;5.69;69.23;100439.67;1749524;79;21093;-59
2021/12/17 04:30:26;;;;;;;5.08;1.42;;;;;;;5.64;69.18;100441.72;1773394;79;21030;-59
2021/12/17 04:32:54;;;;;;;3.27;0.93;;;;;;;5.61;69.23;100438.80;1738001;81;21049;-59
2021/12/17 04:35:21;;;;;;;3.92;1.50;;;;;;;5.69;68.99;100443.11;1764783;79;21097;-60
2021/12/17 04:37:50;;;;;;;5.67;1.55;;;;;;;5.72;68.86;100436.41;1748192;80;21145;-59
2021/12/17 04:40:19;;;;;;;4.08;1.27;;;;;;;5.71;69.01;100438.64;1756922;79;20999;-60
2021/12/17 04:45:38;;;;;;;4.87;1.60;;;;;;;5.56;68.69;100441.70;1762326;79;20986;-58
2021/12/17 04:59:11;;;;;;;6.12;1.75;;;;;;;5.44;68.51;100435.04;1733868;80;21119;-58
2021/12/17 05:01:37;;;;;;;5.08;1.60;;;;;;;5.39;68.56;100439.21;1765950;79;21073;-59
2021/12/17 05:04:04;;;;;;;4.22;1.50;;;;;;;5.33;68.57;100433.03;1770958;79;21056;-59
2021/12/17 05:06:32;;;;;;;5.67;1.85;;;;;;;5.36;68.67;100440.69;1745777;80;21096;-59
2021/12/17 05:09:09;;;;;;;5.70;1.70;;;;;;;5.47;68.24;100434.88;1735163;81;22648;-59
2021/12/17 05:19:49;;;;;;;5.03;1.95;;;;;;;5.38;67.43;100434.47;1768098;79;21101;-58
2021/12/17 05:22:14;;;;;;;5.62;1.67;;;;;;;5.40;67.33;100423.95;1736078;81;20994;-59
2021/12/17 05:24:41;;;;;;;5.60;2.02;;;;;;;5.40;67.42;100433.08;1741583;79;21026;-59
2021/12/17 05:27:09;;;;;;;7.90;1.77;;;;;;;5.35;67.74;100429.89;1768882;79;21160;-58
2021/12/17 05:29:38;;;;;;;6.15;1.70;;;;;;;5.33;67.69;100435.20;1754761;80;21164;-57
2021/12/17 05:32:05;;;;;;;5.45;1.85;;;;;;;5.33;67.75;100431.28;1738811;80;22502;-60
2021/12/17 05:34:34;;;;;;;4.95;1.80;;;;;;;5.45;67.71;100430.21;1733302;80;21574;-58
2021/12/17 05:37:03;;;;;;;2.92;1.15;;;;;;;5.54;67.60;100434.88;1744092;80;21078;-60
2021/12/17 05:39:29;;;;;;;4.92;2.00;;;;;;;5.59;67.51;100435.45;1760061;80;20976;-59
2021/12/17 05:41:58;;;;;;;5.20;1.70;;;;;;;5.59;67.43;100430.23;1741289;80;21112;-60
2021/12/17 05:44:26;;;;;;;6.50;2.20;;;;;;;5.59;67.17;100434.14;1729114;80;22273;-60
2021/12/17 05:46:53;;;;;;;5.78;1.85;;;;;;;5.55;67.32;100439.19;1752737;80;21249;-60
2021/12/17 05:49:23;;;;;;;9.40;2.17;;;;;;;5.52;66.92;100432.83;1756617;80;21162;-59
2021/12/17 05:51:50;;;;;;;5.05;1.65;;;;;;;5.61;66.71;100433.58;1755612;80;21031;-58
2021/12/17 05:54:17;;;;;;;5.75;1.90;;;;;;;5.57;66.79;100430.31;1755685;80;21237;-59
2021/12/17 05:56:44;;;;;;;5.97;2.20;;;;;;;5.51;66.97;100423.31;1738678;79;22220;-60
2021/12/17 05:59:11;;;;;;;5.62;1.85;;;;;;;5.48;67.31;100428.26;1765401;78;21136;-59
2021/12/17 06:01:38;;;;;;;8.43;2.15;;;;;;;5.48;67.19;100425.65;1772912;78;20979;-59
2021/12/17 06:04:05;;;;;;;8.05;2.00;;;;;;;5.51;67.16;100425.92;1775898;79;21041;-60
2021/12/17 06:06:38;;;;;;;7.35;2.33;;;;;;;5.59;66.69;100419.79;1774789;78;21391;-59
2021/12/17 06:09:07;;;;;;;7.20;1.90;;;;;;;5.59;66.62;100424.53;1775866;79;21018;-60
2021/12/17 06:11:35;;;;;;;7.72;2.72;;;;;;;5.55;66.67;100427.44;1773774;78;21014;-59
2021/12/17 06:14:02;;;;;;;5.30;1.67;;;;;;;5.49;66.79;100426.00;1772407;79;21472;-58
2021/12/17 06:16:33;;;;;;;5.35;2.20;;;;;;;5.44;66.73;100426.73;1752697;79;21073;-59
2021/12/17 06:19:02;;;;;;;6.33;2.22;;;;;;;5.45;66.80;100430.21;1780708;78;21951;-58
2021/12/17 06:21:29;;;;;;;6.08;2.12;;;;;;;5.55;66.61;100435.27;1758847;80;21053;-58
2021/12/17 06:23:55;;;;;;;7.92;2.65;;;;;;;5.53;66.37;100432.75;1734896;80;21093;-58
2021/12/17 06:26:21;;;;;;;7.87;2.50;;;;;;;5.47;66.47;100439.61;1744883;81;21812;-58
2021/12/17 06:28:50;;;;;;;4.85;1.95;;;;;;;5.45;66.58;100440.17;1747088;80;21482;-58
2021/12/17 06:31:19;;;;;;;5.25;2.27;;;;;;;5.42;66.51;100439.05;1742110;80;21202;-58
2021/12/17 06:33:46;;;;;;;7.17;2.37;;;;;;;5.42;66.66;100439.05;1748431;80;20982;-58
2021/12/17 06:36:12;;;;;;;7.78;1.92;;;;;;;5.52;66.61;100439.36;1755730;79;21687;-58
2021/12/17 06:38:41;;;;;;;11.40;2.55;;;;;;;5.61;66.57;100444.50;1734463;80;21015;-58
2021/12/17 06:41:08;;;;;;;9.43;2.87;;;;;;;5.63;66.59;100446.11;1753017;80;20967;-58
2021/12/17 06:43:42;;;;;;;6.45;2.30;;;;;;;5.64;66.57;100441.72;1751472;80;21812;-58
2021/12/17 06:48:55;;;;;;;4.78;2.12;;;;;;;5.68;66.42;100441.90;1768639;79;21112;-58
2021/12/17 06:59:53;;;;;;;9.48;2.20;;;;;;;5.69;65.95;100427.45;1673854;83;21052;-58
2021/12/17 07:11:56;;;;;;;7.15;2.17;;;;;;;5.49;66.61;100442.14;1790019;78;21890;-59
2021/12/17 07:22:26;;;;;;;6.03;2.40;;;;;;;5.69;66.48;100439.67;1763698;78;21006;-58
2021/12/17 07:24:52;;;;;;;6.15;2.37;;;;;;;5.68;66.29;100444.06;1761393;78;21328;-58
2021/12/17 07:33:16;;;;;;;5.97;2.40;;;;;;;5.58;66.29;100434.63;1756179;80;21104;-57
2021/12/17 07:35:54;;;;;;;6.10;2.67;;;;;;;5.67;66.17;100441.55;1794988;78;21088;-58
2021/12/17 07:41:03;;;;;;;6.90;2.35;;;;;;;5.77;66.18;100438.28;1797755;78;21069;-59
2021/12/17 07:43:37;;;;;;;5.50;2.47;;;;;;;5.78;66.10;100445.64;1796791;78;22539;-58
2021/12/17 07:46:09;;;;;;;7.35;2.27;;;;;;;5.76;65.85;100443.13;1781386;78;21046;-58
2021/12/17 07:48:36;;;;;;;5.50;1.80;;;;;;;5.71;65.94;100439.94;1797475;78;21081;-58
2021/12/17 07:51:08;;;;;;;5.12;2.30;;;;;;;5.65;65.74;100445.98;1749566;80;21085;-59
2021/12/17 07:53:45;;;;;;;5.92;2.22;;;;;;;5.64;65.80;100433.41;1795593;78;21055;-60
2021/12/17 07:56:17;;;;;;;6.25;2.40;;;;;;;5.72;65.67;100434.28;1791438;78;21029;-59
2021/12/17 07:58:44;;;;;;;8.15;2.60;;;;;;;5.70;65.63;100441.34;1785540;78;21059;-59
2021/12/17 08:01:11;;;;;;;6.58;2.85;;;;;;;5.67;65.96;100435.02;1782784;79;21125;-60
2021/12/17 08:03:39;;;;;;;5.83;2.10;;;;;;;5.68;65.91;100440.15;1782630;79;23291;-60
2021/12/17 08:06:07;;;;;;;12.50;2.52;;;;;;;5.67;65.72;100439.77;1787193;78;21098;-59
2021/12/17 08:08:37;;;;;;;6.28;2.12;;;;;;;5.65;65.65;100440.33;1789636;78;21121;-59
2021/12/17 08:11:06;;;;;;;6.58;2.15;;;;;;;5.69;65.60;100444.42;1765720;79;21129;-58
2021/12/17 08:13:34;;;;;;;6.42;2.08;;;;;;;5.65;65.84;100446.84;1791141;78;21120;-58
2021/12/17 08:19:07;;;;;;;4.40;1.95;;;;;;;5.55;66.76;100449.63;1785703;78;21104;-59
2021/12/17 08:29:32;;;;;;;3.90;1.47;;;;;;;5.26;68.35;100437.79;1765369;78;21094;-58
2021/12/17 08:31:53;;;;;;;6.10;2.60;;;;;;;5.18;68.66;100440.82;1786658;78;21030;-59
2021/12/17 08:34:22;;;;;;;5.53;2.00;;;;;;;5.19;69.01;100439.05;1783131;78;21113;-58
2021/12/17 08:36:49;;;;;;;5.28;2.20;;;;;;;5.25;68.76;100439.18;1760416;79;21403;-60
2021/12/17 08:39:15;;;;;;;5.87;1.90;;;;;;;5.19;68.89;100435.99;1784059;78;21097;-59
2021/12/17 08:41:45;;;;;;;5.03;1.85;;;;;;;5.13;69.15;100438.94;1786855;78;21206;-58
2021/12/17 08:44:11;;;;;;;4.72;1.75;;;;;;;5.11;69.51;100431.67;1783690;78;21071;-57
2021/12/17 08:46:41;;;;;;;5.40;2.05;;;;;;;5.13;69.60;100431.59;1753756;80;21166;-58
2021/12/17 08:49:20;;;;;;;5.85;1.87;;;;;;;5.21;69.64;100422.83;1749764;78;21043;-58
2021/12/17 08:52:07;;;;;;;7.95;2.62;;;;;;;5.37;69.48;100418.90;1787106;78;21526;-57
2021/12/17 08:54:34;;;;;;;4.10;1.52;;;;;;;5.46;69.49;100417.05;1764780;79;21114;-56
2021/12/17 08:57:02;;;;;;;7.35;2.70;;;;;;;5.50;69.47;100413.34;1789208;78;21029;-58
2021/12/17 08:59:31;;;;;;;6.35;2.52;;;;;;;5.55;69.42;100414.39;1753189;80;21100;-57
2021/12/17 09:04:22;;;;;;;6.35;2.58;;;;;;;5.48;69.17;100410.43;1798438;77;22764;-58
2021/12/17 09:06:52;;;;;;;6.75;2.83;;;;;;;5.42;69.49;100415.55;1768825;80;21667;-56
2021/12/17 09:09:22;;;;;;;6.58;3.00;;;;;;;5.38;68.90;100409.67;1769939;79;20954;-57
2021/12/17 09:11:50;;;;;;;8.40;3.42;;;;;;;5.23;69.26;100412.31;1771072;79;21733;-58
2021/12/17 09:14:28;;;;;;;8.63;4.47;;;;;;;5.08;69.73;100409.67;1774137;78;21501;-57
2021/12/17 09:16:57;;;;;;;6.80;2.98;;;;;;;5.02;70.19;100413.44;1774283;79;21090;-57
2021/12/17 09:19:27;;;;;;;9.00;2.83;;;;;;;5.07;70.18;100411.05;1773783;78;21003;-57
2021/12/17 09:21:55;;;;;;;7.25;3.10;;;;;;;5.04;69.95;100405.53;1771613;79;21503;-57
2021/12/17 09:24:23;;;;;;;12.03;3.02;;;;;;;4.98;70.00;100408.03;1762618;78;21170;-58
2021/12/17 09:27:04;;;;;;;7.42;3.67;;;;;;;4.91;70.26;100395.42;1669050;80;21586;-60
2021/12/17 09:29:49;;;;;;;7.63;3.33;;;;;;;4.90;70.55;100396.36;1773936;78;22214;-58
2021/12/17 09:32:15;;;;;;;11.53;7.42;;;;;;;4.98;70.60;100398.08;1773749;79;21117;-58
2021/12/17 09:34:42;;;;;;;10.50;4.53;;;;;;;4.96;70.59;100389.03;1770350;78;21829;-58
2021/12/17 09:37:08;;;;;;;9.35;4.20;;;;;;;4.93;70.65;100393.11;1772532;79;20911;-59
2021/12/17 09:39:34;;;;;;;7.75;3.50;;;;;;;4.88;70.79;100387.80;1748340;80;21070;-58
2021/12/17 09:42:00;;;;;;;10.93;5.95;;;;;;;4.90;70.89;100386.77;1771807;79;20999;-57
2021/12/17 09:44:27;;;;;;;12.85;5.65;;;;;;;4.99;70.92;100382.34;1774738;79;21062;-57
2021/12/17 09:46:57;;;;;;;12.37;5.42;;;;;;;5.00;71.00;100382.70;1774975;79;22136;-58
2021/12/17 09:49:22;;;;;;;10.55;5.03;;;;;;;5.00;70.90;100378.80;1718212;79;22306;-57
2021/12/17 09:51:48;;;;;;;12.18;7.72;;;;;;;4.96;71.03;100379.91;1775507;78;21081;-57
2021/12/17 09:54:15;;;;;;;10.25;4.35;;;;;;;5.03;71.18;100374.71;1773618;79;21674;-57
2021/12/17 09:56:41;;;;;;;11.28;5.03;;;;;;;5.19;70.87;100369.47;1775523;78;20987;-58
2021/12/17 09:59:08;;;;;;;10.13;4.05;;;;;;;5.34;70.63;100372.10;1775890;78;21152;-58
2021/12/17 10:01:39;;;;;;;14.20;3.98;;;;;;;5.40;70.15;100365.23;1752504;80;21157;-57
2021/12/17 10:04:19;;;;;;;13.88;4.42;;;;;;;5.44;70.11;100364.58;1738471;79;21085;-57
2021/12/17 10:06:47;;;;;;;7.35;3.20;;;;;;;5.46;69.90;100364.84;1729697;81;21644;-58
2021/12/17 10:09:15;;;;;;;7.75;3.58;;;;;;;5.51;68.57;100358.06;1729352;81;21073;-58
2021/12/17 10:12:06;;;;;;;6.53;3.00;;;;;;;5.59;68.29;100368.41;1709812;82;21803;-59
2021/12/17 10:14:33;;;;;;;7.12;3.30;;;;;;;5.61;68.14;100367.50;1730250;81;21137;-58
2021/12/17 10:17:08;;;;;;;10.13;3.05;;;;;;;5.59;68.14;100358.45;1730375;81;21055;-58
2021/12/17 10:19:49;;;;;;;6.00;2.65;;;;;;;5.55;68.34;100362.19;1729225;81;21110;-57
2021/12/17 10:22:18;;;;;;;8.13;2.80;;;;;;;5.55;68.30;100360.41;1727961;81;21058;-57
2021/12/17 10:25:07;;;;;;;5.45;1.92;;;;;;;5.61;67.66;100363.10;1732152;81;21137;-57
2021/12/17 10:27:41;;;;;;;4.83;1.50;;;;;;;5.54;67.12;100358.71;1730588;81;21010;-58
2021/12/17 10:30:21;;;;;;;3.62;1.42;;;;;;;5.37;67.10;100364.93;1725196;81;21787;-58
2021/12/17 10:32:55;;;;;;;3.98;1.50;;;;;;;5.18;67.51;100366.48;1728758;81;21097;-57
2021/12/17 10:35:26;;;;;;;4.58;1.67;;;;;;;5.15;68.22;100352.78;1705434;82;21125;-57
2021/12/17 10:38:00;;;;;;;6.67;1.62;;;;;;;5.14;67.87;100358.91;1725814;81;21112;-57
2021/12/17 10:40:47;;;;;;;5.67;2.00;;;;;;;5.07;68.38;100349.30;1706436;81;21117;-58
2021/12/17 10:43:26;;;;;;;4.83;1.98;;;;;;;5.01;68.51;100354.41;1729688;81;20991;-57
2021/12/17 10:48:48;;;;;;;6.92;2.17;;;;;;;5.06;68.96;100345.02;1730875;81;21123;-57
2021/12/17 10:51:17;;;;;;;3.87;1.95;;;;;;;5.19;68.92;100349.05;1726294;81;21825;-57
2021/12/17 10:53:54;;;;;;;6.00;2.37;;;;;;;5.27;68.70;100346.00;1726332;81;21078;-58
2021/12/17 10:56:24;;;;;;;5.55;2.10;;;;;;;5.29;68.22;100339.75;1691558;82;21131;-58
2021/12/17 10:58:55;;;;;;;6.22;2.40;;;;;;;5.31;68.05;100337.91;1679984;83;21101;-59
2021/12/17 11:01:45;;;;;;;9.38;1.85;;;;;;;5.31;67.99;100338.36;1697145;82;20999;-59
2021/12/17 11:04:21;;;;;;;5.00;2.00;;;;;;;5.39;67.76;100340.88;1691834;82;21117;-58
2021/12/17 11:06:58;;;;;;;5.28;1.60;;;;;;;5.40;67.25;100341.27;1708101;82;21723;-58
2021/12/17 11:09:48;;;;;;;6.05;1.92;;;;;;;5.33;66.65;100339.96;1684943;83;21141;-58
2021/12/17 11:12:35;;;;;;;5.08;2.08;;;;;;;5.28;66.75;100342.44;1707091;82;21129;-58
2021/12/17 11:15:18;;;;;;;6.40;2.30;;;;;;;5.25;66.43;100348.70;1703988;83;21031;-57
2021/12/17 11:17:49;;;;;;;6.58;1.70;;;;;;;5.34;66.29;100342.09;1702172;82;21242;-57
2021/12/17 11:20:21;;;;;;;5.97;1.80;;;;;;;5.30;66.54;100345.36;1701807;82;21058;-60
2021/12/17 11:22:49;;;;;;;5.08;1.92;;;;;;;5.28;66.66;100345.05;1703997;83;22179;-57
2021/12/17 11:25:17;;;;;;;4.70;1.95;;;;;;;5.27;66.44;100336.88;1707993;82;21079;-57
2021/12/17 11:27:44;;;;;;;13.40;3.22;;;;;;;5.29;66.27;100342.83;1704067;82;21090;-58
2021/12/17 11:30:15;;;;;;;9.95;3.02;;;;;;;5.38;65.96;100331.39;1704246;82;23288;-58
2021/12/17 11:32:43;;;;;;;6.95;1.92;;;;;;;5.46;65.91;100333.53;1688435;82;21726;-58
2021/12/17 11:35:09;;;;;;;7.53;2.17;;;;;;;5.49;66.01;100338.58;1703883;82;21062;-58
2021/12/17 11:37:37;;;;;;;5.60;2.20;;;;;;;5.53;65.59;100331.39;1704498;82;21039;-58
2021/12/17 11:40:08;;;;;;;5.78;2.33;;;;;;;5.53;65.10;100332.25;1686728;83;21118;-58
2021/12/17 11:43:15;;;;;;;5.10;1.80;;;;;;;5.54;64.90;100335.70;1733134;80;21030;-58
2021/12/17 11:45:43;;;;;;;8.43;2.33;;;;;;;5.61;64.86;100334.39;1685576;82;21149;-59
2021/12/17 11:48:19;;;;;;;7.75;2.00;;;;;;;5.69;64.58;100339.99;1766129;79;21137;-58
2021/12/17 11:50:47;;;;;;;4.80;1.82;;;;;;;5.70;64.53;100337.77;1770877;80;22159;-59
2021/12/17 11:53:21;;;;;;;5.33;1.85;;;;;;;5.68;63.94;100339.64;1740317;80;21089;-58
2021/12/17 11:55:57;;;;;;;4.08;0.82;;;;;;;5.64;63.26;100360.79;1770252;79;21156;-58
2021/12/17 11:58:51;;;;;;;1.92;0.50;;;;;;;5.39;62.63;100354.41;1769079;79;21069;-58
2021/12/17 12:02:11;;;;;;;1.95;0.40;;;;;;;5.10;63.77;100356.95;1745673;80;21667;-59
2021/12/17 12:04:47;;;;;;;2.80;0.40;;;;;;;4.82;64.87;100365.05;1727400;81;21102;-58
2021/12/17 12:07:17;;;;;;;2.15;0.65;;;;;;;4.54;66.20;100375.30;1764449;80;21021;-58
2021/12/17 12:10:08;;;;;;;1.85;0.40;;;;;;;4.40;66.26;100375.59;1765312;79;21657;-58
2021/12/17 12:12:45;;;;;;;3.10;0.85;;;;;;;4.37;66.56;100370.58;1732466;80;21078;-59
2021/12/17 12:15:31;;;;;;;2.83;0.70;;;;;;;4.32;67.03;100375.64;1724878;80;21038;-58
2021/12/17 12:18:17;;;;;;;3.00;0.90;;;;;;;4.18;67.87;100375.92;1726883;80;21140;-58
2021/12/17 12:20:51;;;;;;;2.77;0.72;;;;;;;4.09;68.55;100374.66;1734515;80;21061;-58
2021/12/17 12:23:37;;;;;;;3.62;1.00;;;;;;;4.15;68.99;100373.47;1764298;79;21121;-59
2021/12/17 12:26:11;;;;;;;2.10;0.68;;;;;;;4.15;69.27;100369.56;1758583;80;28396;-58
2021/12/17 12:29:05;;;;;;;3.83;1.25;;;;;;;4.13;69.61;100364.91;1770558;79;20941;-58
2021/12/17 12:31:39;;;;;;;4.72;0.98;;;;;;;4.11;69.86;100362.86;1762843;80;21025;-58
2021/12/17 12:34:16;;;;;;;7.97;1.40;;;;;;;4.17;69.89;100359.94;1757974;79;21058;-58
2021/12/17 12:36:58;;;;;;;5.42;1.10;;;;;;;4.27;69.80;100368.93;1766378;79;21208;-58
2021/12/17 12:39:37;;;;;;;3.80;0.90;;;;;;;4.32;69.82;100371.30;1736831;80;21074;-58
2021/12/17 12:42:17;;;;;;;4.67;0.80;;;;;;;4.32;69.76;100371.30;1764237;79;21235;-58
2021/12/17 12:44:50;;;;;;;3.20;1.00;;;;;;;4.32;69.79;100379.55;1726697;79;21043;-59
2021/12/17 12:47:31;;;;;;;3.55;0.90;;;;;;;4.35;69.64;100379.39;1758493;79;21095;-60
2021/12/17 12:50:13;;;;;;;4.92;1.52;;;;;;;4.42;69.32;100376.37;1706170;82;21868;-59
2021/12/17 12:52:45;;;;;;;4.80;1.90;;;;;;;4.47;69.24;100383.92;1677386;83;21600;-57
2021/12/17 12:55:23;;;;;;;6.62;2.10;;;;;;;4.46;69.39;100385.70;1764764;79;21019;-58
2021/12/17 12:58:01;;;;;;;8.08;2.20;;;;;;;4.48;69.30;100383.48;1750226;79;21600;-58
2021/12/17 13:00:50;;;;;;;6.65;2.30;;;;;;;4.48;69.45;100388.22;1744262;80;21047;-58
2021/12/17 13:03:26;;;;;;;4.72;1.90;;;;;;;4.46;69.49;100380.48;1764620;79;21235;-58
2021/12/17 13:05:53;;;;;;;6.08;1.75;;;;;;;4.56;69.51;100388.64;1759397;79;21877;-58
2021/12/17 13:08:22;;;;;;;7.05;2.62;;;;;;;4.68;69.18;100386.30;1766690;79;21048;-58
2021/12/17 13:10:55;;;;;;;7.55;2.95;;;;;;;4.74;68.96;100388.54;1762982;79;21082;-58
2021/12/17 13:16:21;;;;;;;7.50;3.10;;;;;;;4.71;69.07;100384.80;1762237;79;22517;-59
2021/12/17 13:21:59;;;;;;;7.25;2.83;;;;;;;4.75;69.10;100391.54;1732842;80;21643;-59
2021/12/17 13:24:23;;;;;;;6.85;2.60;;;;;;;4.80;68.92;100403.85;1760552;79;21062;-59
2021/12/17 13:27:00;;;;;;;4.40;1.82;;;;;;;4.82;67.81;100401.99;1767364;79;21552;-59
2021/12/17 13:29:33;;;;;;;5.92;2.05;;;;;;;4.66;67.13;100394.20;1732688;80;21692;-59
2021/12/17 13:32:09;;;;;;;6.92;2.33;;;;;;;4.50;67.55;100399.39;1764488;79;21042;-59
2021/12/17 13:34:45;;;;;;;6.05;2.45;;;;;;;4.34;67.89;100394.19;1700440;83;21102;-58
2021/12/17 13:37:18;;;;;;;5.58;2.98;;;;;;;4.26;68.36;100397.19;1703827;82;21058;-58
2021/12/17 13:39:52;;;;;;;5.10;2.27;;;;;;;4.27;68.44;100397.58;1677526;83;21115;-58
2021/12/17 13:42:28;;;;;;;5.35;2.30;;;;;;;4.23;68.52;100400.42;1702812;82;22912;-59
2021/12/17 13:44:57;;;;;;;7.87;2.20;;;;;;;4.17;68.62;100409.86;1679505;83;21098;-58
2021/12/17 13:47:31;;;;;;;4.30;1.35;;;;;;;4.06;68.42;100403.45;1674792;83;21063;-58
2021/12/17 13:50:07;;;;;;;4.28;1.32;;;;;;;4.14;68.51;100397.02;1675827;83;21064;-57
2021/12/17 13:52:50;;;;;;;6.00;1.12;;;;;;;4.15;68.70;100398.22;1724647;80;21118;-59
2021/12/17 13:55:20;;;;;;;3.95;1.00;;;;;;;4.16;68.74;100401.69;1725345;80;21141;-59
2021/12/17 13:57:47;;;;;;;2.75;0.70;;;;;;;4.16;68.59;100401.21;1762998;79;21057;-60
2021/12/17 14:00:33;;;;;;;4.12;0.93;;;;;;;4.15;68.06;100397.38;1765511;79;21081;-59
2021/12/17 14:03:00;;;;;;;4.10;0.93;;;;;;;4.17;67.88;100395.53;1765256;79;21027;-60
2021/12/17 14:05:40;;;;;;;2.55;0.50;;;;;;;4.25;67.35;100405.95;1773261;78;20969;-60
2021/12/17 14:08:01;;;;;;;2.45;0.90;;;;;;;4.26;67.43;100403.70;1768956;78;21105;-59
2021/12/17 14:10:30;;;;;;;3.77;1.12;;;;;;;4.26;67.47;100401.09;1769252;80;21370;-59
2021/12/17 14:13:01;;;;;;;3.40;1.12;;;;;;;4.26;67.14;100404.17;1769434;79;21056;-60
2021/12/17 14:15:31;;;;;;;1.98;0.57;;;;;;;4.23;67.22;100406.47;1746276;80;21276;-59
2021/12/17 14:18:03;;;;;;;2.40;0.70;;;;;;;4.20;67.29;100404.05;1768765;79;21087;-59
2021/12/17 14:20:46;;;;;;;3.05;0.72;;;;;;;4.26;67.34;100405.48;1772516;78;21148;-59
2021/12/17 14:23:22;;;;;;;4.22;0.90;;;;;;;4.39;67.26;100399.16;1767741;79;21117;-59
2021/12/17 14:25:57;;;;;;;4.22;1.20;;;;;;;4.47;67.19;100404.77;1769124;79;21794;-59
2021/12/17 14:28:25;;;;;;;3.45;1.20;;;;;;;4.49;67.20;100404.25;1769349;79;21634;-60
2021/12/17 14:31:14;;;;;;;6.00;2.20;;;;;;;4.51;67.46;100406.77;1748926;79;21492;-60
2021/12/17 14:33:45;;;;;;;5.75;2.20;;;;;;;4.51;67.44;100405.00;1715619;81;21038;-59
2021/12/17 14:36:27;;;;;;;5.08;1.92;;;;;;;4.54;67.43;100407.88;1734457;80;20991;-59
2021/12/17 14:39:11;;;;;;;5.20;1.90;;;;;;;4.57;67.47;100412.93;1770581;79;21037;-59
2021/12/17 14:41:51;;;;;;;4.92;2.27;;;;;;;4.63;67.43;100410.83;1772242;79;21925;-59
2021/12/17 14:46:55;;;;;;;4.90;1.70;;;;;;;4.82;67.03;100429.37;1747115;78;21840;-59
2021/12/17 15:00:25;;;;;;;4.80;2.10;;;;;;;4.06;68.04;100441.68;1764363;78;21094;-59